sensor_id;sensor_type;location;lat;lon;timestamp;pressure;altitude;pressure_sealevel;temperature;humidity
59443;BME280;45247;47.466;19.004;2023-04-30T00:01:06;99747.41;;;11.64;100.00
59443;BME280;45247;47.466;19.004;2023-04-30T00:03:34;99745.06;;;11.59;100.00
59443;BME280;45247;47.466;19.004;2023-04-30T00:06:04;99746.44;;;11.52;100.00
59443;BME280;45247;47.466;19.004;2023-04-30T00:08:32;99757.50;;;11.44;100.00
59443;BME280;45247;47.466;19.004;2023-04-30T00:11:01;99758.53;;;11.42;100.00
59443;BME280;45247;47.466;19.004;2023-04-30T00:13:29;99750.66;;;11.27;100.00
59443;BME280;45247;47.466;19.004;2023-04-30T00:15:57;99752.78;;;11.22;100.00
59443;BME280;45247;47.466;19.004;2023-04-30T00:18:25;99755.06;;;11.14;100.00
59443;BME280;45247;47.466;19.004;2023-04-30T00:20:53;99759.03;;;11.07;100.00
59443;BME280;45247;47.466;19.004;2023-04-30T00:23:22;99757.78;;;11.13;100.00
59443;BME280;45247;47.466;19.004;2023-04-30T00:25:50;99756.78;;;11.01;100.00
59443;BME280;45247;47.466;19.004;2023-04-30T00:28:19;99761.03;;;10.89;100.00
59443;BME280;45247;47.466;19.004;2023-04-30T00:30:47;99758.03;;;10.81;100.00
59443;BME280;45247;47.466;19.004;2023-04-30T00:33:15;99767.25;;;10.74;100.00
59443;BME280;45247;47.466;19.004;2023-04-30T00:35:43;99756.34;;;10.66;100.00
59443;BME280;45247;47.466;19.004;2023-04-30T00:38:11;99755.03;;;10.59;100.00
59443;BME280;45247;47.466;19.004;2023-04-30T00:40:40;99755.03;;;10.44;100.00
59443;BME280;45247;47.466;19.004;2023-04-30T00:43:09;99755.59;;;10.35;100.00
59443;BME280;45247;47.466;19.004;2023-04-30T00:45:37;99753.66;;;10.23;100.00
59443;BME280;45247;47.466;19.004;2023-04-30T00:48:05;99755.44;;;10.22;100.00
59443;BME280;45247;47.466;19.004;2023-04-30T00:50:35;99754.16;;;10.15;100.00
59443;BME280;45247;47.466;19.004;2023-04-30T00:53:03;99750.91;;;10.10;100.00
59443;BME280;45247;47.466;19.004;2023-04-30T00:55:31;99750.06;;;10.10;100.00
59443;BME280;45247;47.466;19.004;2023-04-30T00:58:01;99749.38;;;10.06;100.00
59443;BME280;45247;47.466;19.004;2023-04-30T01:00:29;99747.69;;;10.05;100.00
59443;BME280;45247;47.466;19.004;2023-04-30T01:02:57;99743.66;;;9.99;100.00
59443;BME280;45247;47.466;19.004;2023-04-30T01:05:26;99745.34;;;10.00;100.00
59443;BME280;45247;47.466;19.004;2023-04-30T01:07:55;99750.34;;;10.05;100.00
59443;BME280;45247;47.466;19.004;2023-04-30T01:10:29;99745.75;;;10.09;100.00
59443;BME280;45247;47.466;19.004;2023-04-30T01:13:07;99739.13;;;10.01;100.00
59443;BME280;45247;47.466;19.004;2023-04-30T01:15:41;99753.63;;;9.94;100.00
59443;BME280;45247;47.466;19.004;2023-04-30T01:18:13;99747.97;;;9.86;100.00
59443;BME280;45247;47.466;19.004;2023-04-30T01:20:48;99745.50;;;9.83;100.00
59443;BME280;45247;47.466;19.004;2023-04-30T01:23:23;99750.88;;;9.82;100.00
59443;BME280;45247;47.466;19.004;2023-04-30T01:26:09;99753.56;;;9.80;100.00
59443;BME280;45247;47.466;19.004;2023-04-30T01:28:41;99745.88;;;9.77;100.00
59443;BME280;45247;47.466;19.004;2023-04-30T01:31:12;99746.22;;;9.71;100.00
59443;BME280;45247;47.466;19.004;2023-04-30T01:33:41;99747.91;;;9.72;100.00
59443;BME280;45247;47.466;19.004;2023-04-30T01:36:29;99752.69;;;9.65;100.00
59443;BME280;45247;47.466;19.004;2023-04-30T01:39:12;99754.31;;;9.68;100.00
59443;BME280;45247;47.466;19.004;2023-04-30T01:41:49;99752.44;;;9.70;100.00
59443;BME280;45247;47.466;19.004;2023-04-30T01:44:51;99759.31;;;9.72;100.00
59443;BME280;45247;47.466;19.004;2023-04-30T01:47:28;99755.47;;;9.78;100.00
59443;BME280;45247;47.466;19.004;2023-04-30T01:50:04;99755.28;;;9.81;100.00
59443;BME280;45247;47.466;19.004;2023-04-30T01:52:39;99755.19;;;9.83;100.00
59443;BME280;45247;47.466;19.004;2023-04-30T01:55:12;99748.50;;;9.77;100.00
59443;BME280;45247;47.466;19.004;2023-04-30T01:57:48;99749.63;;;9.73;100.00
59443;BME280;45247;47.466;19.004;2023-04-30T02:00:21;99744.34;;;9.73;100.00
59443;BME280;45247;47.466;19.004;2023-04-30T02:02:50;99749.53;;;9.74;100.00
59443;BME280;45247;47.466;19.004;2023-04-30T02:05:18;99748.56;;;9.75;100.00
59443;BME280;45247;47.466;19.004;2023-04-30T02:07:49;99757.31;;;9.76;100.00
59443;BME280;45247;47.466;19.004;2023-04-30T02:10:21;99754.63;;;9.77;100.00
59443;BME280;45247;47.466;19.004;2023-04-30T02:12:49;99751.03;;;9.78;100.00
59443;BME280;45247;47.466;19.004;2023-04-30T02:15:17;99747.81;;;9.73;100.00
59443;BME280;45247;47.466;19.004;2023-04-30T02:17:47;99746.97;;;9.73;100.00
59443;BME280;45247;47.466;19.004;2023-04-30T02:20:15;99742.91;;;9.67;100.00
59443;BME280;45247;47.466;19.004;2023-04-30T02:22:44;99744.00;;;9.63;100.00
59443;BME280;45247;47.466;19.004;2023-04-30T02:25:12;99749.56;;;9.59;100.00
59443;BME280;45247;47.466;19.004;2023-04-30T02:27:40;99756.47;;;9.45;100.00
59443;BME280;45247;47.466;19.004;2023-04-30T02:30:08;99754.19;;;9.39;100.00
59443;BME280;45247;47.466;19.004;2023-04-30T02:32:36;99756.16;;;9.20;100.00
59443;BME280;45247;47.466;19.004;2023-04-30T02:35:07;99754.81;;;9.13;100.00
59443;BME280;45247;47.466;19.004;2023-04-30T02:37:35;99754.41;;;9.05;100.00
59443;BME280;45247;47.466;19.004;2023-04-30T02:40:04;99761.94;;;8.95;100.00
59443;BME280;45247;47.466;19.004;2023-04-30T02:42:32;99754.72;;;8.83;100.00
59443;BME280;45247;47.466;19.004;2023-04-30T02:45:00;99762.94;;;8.76;100.00
59443;BME280;45247;47.466;19.004;2023-04-30T02:47:28;99756.94;;;8.74;100.00
59443;BME280;45247;47.466;19.004;2023-04-30T02:49:57;99757.94;;;8.72;100.00
59443;BME280;45247;47.466;19.004;2023-04-30T02:52:26;99754.88;;;8.80;100.00
59443;BME280;45247;47.466;19.004;2023-04-30T02:54:54;99765.41;;;8.80;100.00
59443;BME280;45247;47.466;19.004;2023-04-30T02:57:22;99774.84;;;8.84;100.00
59443;BME280;45247;47.466;19.004;2023-04-30T02:59:50;99776.94;;;8.77;100.00
59443;BME280;45247;47.466;19.004;2023-04-30T03:02:19;99771.00;;;8.73;100.00
59443;BME280;45247;47.466;19.004;2023-04-30T03:04:49;99771.09;;;8.72;100.00
59443;BME280;45247;47.466;19.004;2023-04-30T03:07:17;99770.16;;;8.73;100.00
59443;BME280;45247;47.466;19.004;2023-04-30T03:09:47;99761.50;;;8.71;100.00
59443;BME280;45247;47.466;19.004;2023-04-30T03:12:15;99762.59;;;8.67;100.00
59443;BME280;45247;47.466;19.004;2023-04-30T03:14:43;99766.75;;;8.71;100.00
59443;BME280;45247;47.466;19.004;2023-04-30T03:17:11;99757.94;;;8.72;100.00
59443;BME280;45247;47.466;19.004;2023-04-30T03:19:39;99757.84;;;8.73;100.00
59443;BME280;45247;47.466;19.004;2023-04-30T03:22:07;99760.41;;;8.75;100.00
59443;BME280;45247;47.466;19.004;2023-04-30T03:24:35;99756.84;;;8.76;100.00
59443;BME280;45247;47.466;19.004;2023-04-30T03:27:05;99759.63;;;8.73;100.00
59443;BME280;45247;47.466;19.004;2023-04-30T03:29:33;99758.72;;;8.74;100.00
59443;BME280;45247;47.466;19.004;2023-04-30T03:32:01;99759.56;;;8.74;100.00
59443;BME280;45247;47.466;19.004;2023-04-30T03:34:29;99765.72;;;8.73;100.00
59443;BME280;45247;47.466;19.004;2023-04-30T03:36:58;99770.00;;;8.76;100.00
59443;BME280;45247;47.466;19.004;2023-04-30T03:39:27;99768.63;;;8.85;100.00
59443;BME280;45247;47.466;19.004;2023-04-30T03:41:55;99766.69;;;8.88;100.00
59443;BME280;45247;47.466;19.004;2023-04-30T03:44:27;99767.38;;;8.92;100.00
59443;BME280;45247;47.466;19.004;2023-04-30T03:46:55;99768.81;;;8.97;100.00
59443;BME280;45247;47.466;19.004;2023-04-30T03:49:23;99758.03;;;9.02;100.00
59443;BME280;45247;47.466;19.004;2023-04-30T03:51:51;99774.25;;;9.10;100.00
59443;BME280;45247;47.466;19.004;2023-04-30T03:54:19;99770.84;;;9.24;100.00
59443;BME280;45247;47.466;19.004;2023-04-30T03:56:48;99770.16;;;9.52;100.00
59443;BME280;45247;47.466;19.004;2023-04-30T03:59:16;99773.09;;;9.62;100.00
59443;BME280;45247;47.466;19.004;2023-04-30T04:01:46;99777.56;;;9.75;100.00
59443;BME280;45247;47.466;19.004;2023-04-30T04:04:14;99776.00;;;9.87;100.00
59443;BME280;45247;47.466;19.004;2023-04-30T04:06:42;99779.63;;;10.00;100.00
59443;BME280;45247;47.466;19.004;2023-04-30T04:09:10;99775.69;;;10.08;100.00
59443;BME280;45247;47.466;19.004;2023-04-30T04:11:39;99778.09;;;10.26;100.00
59443;BME280;45247;47.466;19.004;2023-04-30T04:14:07;99784.44;;;10.67;100.00
59443;BME280;45247;47.466;19.004;2023-04-30T04:16:35;99791.13;;;11.01;100.00
59443;BME280;45247;47.466;19.004;2023-04-30T04:19:05;99791.97;;;11.01;100.00
59443;BME280;45247;47.466;19.004;2023-04-30T04:21:33;99795.25;;;10.91;100.00
59443;BME280;45247;47.466;19.004;2023-04-30T04:24:01;99800.53;;;11.05;100.00
59443;BME280;45247;47.466;19.004;2023-04-30T04:26:34;99803.63;;;11.12;100.00
59443;BME280;45247;47.466;19.004;2023-04-30T04:29:02;99791.81;;;11.17;100.00
59443;BME280;45247;47.466;19.004;2023-04-30T04:31:30;99803.22;;;11.32;100.00
59443;BME280;45247;47.466;19.004;2023-04-30T04:33:59;99798.56;;;11.63;100.00
59443;BME280;45247;47.466;19.004;2023-04-30T04:36:29;99795.94;;;11.63;100.00
59443;BME280;45247;47.466;19.004;2023-04-30T04:39:00;99801.56;;;11.71;100.00
59443;BME280;45247;47.466;19.004;2023-04-30T04:41:29;99810.22;;;11.73;100.00
59443;BME280;45247;47.466;19.004;2023-04-30T04:43:58;99813.44;;;11.78;100.00
59443;BME280;45247;47.466;19.004;2023-04-30T04:46:28;99824.59;;;11.83;100.00
59443;BME280;45247;47.466;19.004;2023-04-30T04:48:57;99825.13;;;11.88;100.00
59443;BME280;45247;47.466;19.004;2023-04-30T04:51:26;99828.50;;;11.90;100.00
59443;BME280;45247;47.466;19.004;2023-04-30T04:53:55;99830.47;;;12.01;100.00
59443;BME280;45247;47.466;19.004;2023-04-30T04:56:23;99824.47;;;12.63;100.00
59443;BME280;45247;47.466;19.004;2023-04-30T04:58:51;99831.34;;;13.03;100.00
59443;BME280;45247;47.466;19.004;2023-04-30T05:01:19;99826.34;;;13.24;100.00
59443;BME280;45247;47.466;19.004;2023-04-30T05:03:48;99841.69;;;13.45;100.00
59443;BME280;45247;47.466;19.004;2023-04-30T05:06:16;99841.63;;;14.06;100.00
59443;BME280;45247;47.466;19.004;2023-04-30T05:08:45;99841.03;;;15.49;100.00
59443;BME280;45247;47.466;19.004;2023-04-30T05:11:14;99840.91;;;16.68;100.00
59443;BME280;45247;47.466;19.004;2023-04-30T05:13:42;99852.50;;;17.59;100.00
59443;BME280;45247;47.466;19.004;2023-04-30T05:16:10;99851.63;;;16.78;100.00
59443;BME280;45247;47.466;19.004;2023-04-30T05:18:38;99840.09;;;17.79;100.00
59443;BME280;45247;47.466;19.004;2023-04-30T05:21:06;99833.72;;;19.05;94.32
59443;BME280;45247;47.466;19.004;2023-04-30T05:23:34;99835.78;;;20.73;78.80
59443;BME280;45247;47.466;19.004;2023-04-30T05:26:03;99824.97;;;20.47;74.78
59443;BME280;45247;47.466;19.004;2023-04-30T05:28:33;99837.97;;;20.52;75.06
59443;BME280;45247;47.466;19.004;2023-04-30T05:31:01;99843.41;;;20.94;71.58
59443;BME280;45247;47.466;19.004;2023-04-30T05:33:29;99837.53;;;20.90;70.68
59443;BME280;45247;47.466;19.004;2023-04-30T05:35:57;99843.78;;;20.29;74.06
59443;BME280;45247;47.466;19.004;2023-04-30T05:38:25;99850.09;;;19.29;81.55
59443;BME280;45247;47.466;19.004;2023-04-30T05:40:53;99850.50;;;19.62;78.78
59443;BME280;45247;47.466;19.004;2023-04-30T05:43:21;99850.28;;;19.73;77.72
59443;BME280;45247;47.466;19.004;2023-04-30T05:45:51;99853.31;;;20.06;76.37
59443;BME280;45247;47.466;19.004;2023-04-30T05:48:19;99847.69;;;20.79;69.52
59443;BME280;45247;47.466;19.004;2023-04-30T05:50:48;99854.34;;;19.22;78.89
59443;BME280;45247;47.466;19.004;2023-04-30T05:53:16;99857.56;;;20.34;72.63
59443;BME280;45247;47.466;19.004;2023-04-30T05:55:45;99847.81;;;21.71;68.43
59443;BME280;45247;47.466;19.004;2023-04-30T05:58:13;99848.34;;;22.65;61.08
59443;BME280;45247;47.466;19.004;2023-04-30T06:00:41;99842.00;;;22.66;58.05
59443;BME280;45247;47.466;19.004;2023-04-30T06:03:10;99848.03;;;22.60;58.42
59443;BME280;45247;47.466;19.004;2023-04-30T06:05:38;99844.59;;;20.47;64.97
59443;BME280;45247;47.466;19.004;2023-04-30T06:08:07;99851.63;;;20.92;63.74
59443;BME280;45247;47.466;19.004;2023-04-30T06:10:36;99855.59;;;21.14;63.33
59443;BME280;45247;47.466;19.004;2023-04-30T06:13:05;99844.00;;;20.36;67.41
59443;BME280;45247;47.466;19.004;2023-04-30T06:15:33;99858.16;;;19.19;72.03
59443;BME280;45247;47.466;19.004;2023-04-30T06:18:02;99853.13;;;20.25;68.29
59443;BME280;45247;47.466;19.004;2023-04-30T06:20:32;99855.97;;;19.88;67.84
59443;BME280;45247;47.466;19.004;2023-04-30T06:23:00;99847.84;;;20.15;68.47
59443;BME280;45247;47.466;19.004;2023-04-30T06:25:29;99850.28;;;19.73;70.74
59443;BME280;45247;47.466;19.004;2023-04-30T06:27:57;99842.66;;;19.96;69.61
59443;BME280;45247;47.466;19.004;2023-04-30T06:30:25;99848.34;;;20.55;65.84
59443;BME280;45247;47.466;19.004;2023-04-30T06:33:00;99846.38;;;20.57;64.02
59443;BME280;45247;47.466;19.004;2023-04-30T06:35:28;99849.00;;;20.48;64.91
59443;BME280;45247;47.466;19.004;2023-04-30T06:37:57;99854.44;;;20.57;63.44
59443;BME280;45247;47.466;19.004;2023-04-30T06:40:25;99863.66;;;20.88;63.31
59443;BME280;45247;47.466;19.004;2023-04-30T06:42:53;99866.84;;;19.59;63.25
59443;BME280;45247;47.466;19.004;2023-04-30T06:45:22;99870.84;;;18.80;66.51
59443;BME280;45247;47.466;19.004;2023-04-30T06:47:50;99866.38;;;18.32;71.67
59443;BME280;45247;47.466;19.004;2023-04-30T06:50:19;99856.81;;;18.30;71.32
59443;BME280;45247;47.466;19.004;2023-04-30T06:52:48;99853.13;;;18.60;69.85
59443;BME280;45247;47.466;19.004;2023-04-30T06:55:18;99854.94;;;18.69;70.27
59443;BME280;45247;47.466;19.004;2023-04-30T06:57:46;99851.94;;;18.91;68.87
59443;BME280;45247;47.466;19.004;2023-04-30T07:00:14;99853.94;;;19.17;65.66
59443;BME280;45247;47.466;19.004;2023-04-30T07:02:42;99857.59;;;18.79;63.72
59443;BME280;45247;47.466;19.004;2023-04-30T07:05:13;99859.41;;;18.88;64.12
59443;BME280;45247;47.466;19.004;2023-04-30T07:07:41;99856.91;;;19.14;62.36
59443;BME280;45247;47.466;19.004;2023-04-30T07:10:09;99854.13;;;18.59;65.75
59443;BME280;45247;47.466;19.004;2023-04-30T07:12:39;99847.97;;;18.29;71.39
59443;BME280;45247;47.466;19.004;2023-04-30T07:15:08;99848.38;;;18.05;68.91
59443;BME280;45247;47.466;19.004;2023-04-30T07:17:36;99851.88;;;18.44;67.93
59443;BME280;45247;47.466;19.004;2023-04-30T07:20:06;99861.59;;;17.77;69.36
59443;BME280;45247;47.466;19.004;2023-04-30T07:22:34;99866.28;;;17.64;71.18
59443;BME280;45247;47.466;19.004;2023-04-30T07:25:04;99861.63;;;17.07;78.29
59443;BME280;45247;47.466;19.004;2023-04-30T07:27:32;99868.41;;;17.20;80.84
59443;BME280;45247;47.466;19.004;2023-04-30T07:30:02;99864.16;;;17.48;77.72
59443;BME280;45247;47.466;19.004;2023-04-30T07:32:30;99864.31;;;17.66;76.54
59443;BME280;45247;47.466;19.004;2023-04-30T07:34:58;99867.47;;;17.81;71.03
59443;BME280;45247;47.466;19.004;2023-04-30T07:37:26;99872.91;;;17.70;75.06
59443;BME280;45247;47.466;19.004;2023-04-30T07:39:54;99867.56;;;17.70;73.34
59443;BME280;45247;47.466;19.004;2023-04-30T07:42:23;99863.00;;;17.91;70.59
59443;BME280;45247;47.466;19.004;2023-04-30T07:44:51;99862.94;;;17.72;70.80
59443;BME280;45247;47.466;19.004;2023-04-30T07:47:21;99866.56;;;17.51;72.23
59443;BME280;45247;47.466;19.004;2023-04-30T07:49:49;99871.84;;;17.42;67.89
59443;BME280;45247;47.466;19.004;2023-04-30T07:52:17;99879.03;;;17.11;71.57
59443;BME280;45247;47.466;19.004;2023-04-30T07:54:45;99877.56;;;17.27;70.31
59443;BME280;45247;47.466;19.004;2023-04-30T07:57:13;99871.22;;;17.19;72.14
59443;BME280;45247;47.466;19.004;2023-04-30T07:59:41;99880.00;;;17.10;71.76
59443;BME280;45247;47.466;19.004;2023-04-30T08:02:09;99874.06;;;16.96;73.63
59443;BME280;45247;47.466;19.004;2023-04-30T08:04:39;99873.25;;;17.06;76.98
59443;BME280;45247;47.466;19.004;2023-04-30T08:07:09;99883.97;;;17.15;75.59
59443;BME280;45247;47.466;19.004;2023-04-30T08:09:38;99875.72;;;17.28;74.94
59443;BME280;45247;47.466;19.004;2023-04-30T08:12:07;99887.81;;;17.32;73.54
59443;BME280;45247;47.466;19.004;2023-04-30T08:14:35;99886.94;;;17.22;75.08
59443;BME280;45247;47.466;19.004;2023-04-30T08:17:03;99881.31;;;17.25;74.50
59443;BME280;45247;47.466;19.004;2023-04-30T08:19:33;99891.72;;;17.28;76.88
59443;BME280;45247;47.466;19.004;2023-04-30T08:22:03;99886.16;;;17.41;76.53
59443;BME280;45247;47.466;19.004;2023-04-30T08:24:31;99882.88;;;17.68;72.46
59443;BME280;45247;47.466;19.004;2023-04-30T08:26:59;99891.25;;;17.53;69.09
59443;BME280;45247;47.466;19.004;2023-04-30T08:29:29;99878.31;;;17.39;71.62
59443;BME280;45247;47.466;19.004;2023-04-30T08:32:01;99891.44;;;17.62;72.64
59443;BME280;45247;47.466;19.004;2023-04-30T08:34:31;99883.19;;;17.74;67.39
59443;BME280;45247;47.466;19.004;2023-04-30T08:36:59;99889.38;;;17.75;64.96
59443;BME280;45247;47.466;19.004;2023-04-30T08:39:29;99896.75;;;17.62;63.86
59443;BME280;45247;47.466;19.004;2023-04-30T08:42:00;99889.03;;;17.68;64.10
59443;BME280;45247;47.466;19.004;2023-04-30T08:44:30;99896.94;;;17.70;63.68
59443;BME280;45247;47.466;19.004;2023-04-30T08:46:59;99895.56;;;17.85;63.07
59443;BME280;45247;47.466;19.004;2023-04-30T08:49:31;99890.41;;;18.13;63.44
59443;BME280;45247;47.466;19.004;2023-04-30T08:51:59;99887.28;;;18.66;63.17
59443;BME280;45247;47.466;19.004;2023-04-30T08:54:29;99881.53;;;18.70;61.59
59443;BME280;45247;47.466;19.004;2023-04-30T08:56:58;99881.25;;;18.64;62.89
59443;BME280;45247;47.466;19.004;2023-04-30T08:59:26;99895.44;;;18.93;62.35
59443;BME280;45247;47.466;19.004;2023-04-30T09:01:54;99888.41;;;18.83;59.53
59443;BME280;45247;47.466;19.004;2023-04-30T09:04:22;99880.22;;;18.84;60.05
59443;BME280;45247;47.466;19.004;2023-04-30T09:06:52;99868.88;;;18.53;62.92
59443;BME280;45247;47.466;19.004;2023-04-30T09:09:28;99883.94;;;18.73;62.84
59443;BME280;45247;47.466;19.004;2023-04-30T09:12:11;99886.16;;;19.25;62.32
59443;BME280;45247;47.466;19.004;2023-04-30T09:14:57;99878.56;;;19.20;61.05
59443;BME280;45247;47.466;19.004;2023-04-30T09:17:25;99877.25;;;19.34;58.99
59443;BME280;45247;47.466;19.004;2023-04-30T09:19:55;99877.97;;;19.26;58.11
59443;BME280;45247;47.466;19.004;2023-04-30T09:22:34;99877.13;;;19.36;58.91
59443;BME280;45247;47.466;19.004;2023-04-30T09:25:04;99879.06;;;18.96;59.86
59443;BME280;45247;47.466;19.004;2023-04-30T09:27:33;99874.03;;;18.84;59.99
59443;BME280;45247;47.466;19.004;2023-04-30T09:30:02;99863.75;;;18.98;59.80
59443;BME280;45247;47.466;19.004;2023-04-30T09:32:30;99853.75;;;19.28;59.45
59443;BME280;45247;47.466;19.004;2023-04-30T09:34:58;99878.78;;;18.99;55.27
59443;BME280;45247;47.466;19.004;2023-04-30T09:37:35;99867.31;;;19.17;55.63
59443;BME280;45247;47.466;19.004;2023-04-30T09:40:05;99864.09;;;18.76;57.25
59443;BME280;45247;47.466;19.004;2023-04-30T09:42:34;99852.06;;;19.27;57.33
59443;BME280;45247;47.466;19.004;2023-04-30T09:45:04;99860.53;;;19.22;55.39
59443;BME280;45247;47.466;19.004;2023-04-30T09:47:32;99845.84;;;19.36;55.54
59443;BME280;45247;47.466;19.004;2023-04-30T09:50:01;99851.19;;;19.64;56.46
59443;BME280;45247;47.466;19.004;2023-04-30T09:52:30;99856.00;;;19.33;51.05
59443;BME280;45247;47.466;19.004;2023-04-30T09:54:58;99859.50;;;19.61;49.58
59443;BME280;45247;47.466;19.004;2023-04-30T09:57:29;99844.63;;;19.76;52.32
59443;BME280;45247;47.466;19.004;2023-04-30T10:00:02;99851.00;;;20.11;50.88
59443;BME280;45247;47.466;19.004;2023-04-30T10:02:32;99852.28;;;20.24;51.56
59443;BME280;45247;47.466;19.004;2023-04-30T10:05:01;99844.53;;;19.68;52.59
59443;BME280;45247;47.466;19.004;2023-04-30T10:07:33;99836.13;;;19.63;52.56
59443;BME280;45247;47.466;19.004;2023-04-30T10:10:07;99860.09;;;19.55;53.60
59443;BME280;45247;47.466;19.004;2023-04-30T10:12:42;99855.19;;;19.22;52.46
59443;BME280;45247;47.466;19.004;2023-04-30T10:15:14;99850.84;;;18.65;54.14
59443;BME280;45247;47.466;19.004;2023-04-30T10:17:46;99855.31;;;18.93;53.77
59443;BME280;45247;47.466;19.004;2023-04-30T10:20:18;99852.81;;;18.82;51.97
59443;BME280;45247;47.466;19.004;2023-04-30T10:22:48;99847.50;;;18.72;52.20
59443;BME280;45247;47.466;19.004;2023-04-30T10:25:17;99837.22;;;18.68;53.94
59443;BME280;45247;47.466;19.004;2023-04-30T10:27:47;99839.72;;;18.89;54.52
59443;BME280;45247;47.466;19.004;2023-04-30T10:30:16;99851.09;;;18.91;54.67
59443;BME280;45247;47.466;19.004;2023-04-30T10:32:50;99848.31;;;19.20;51.84
59443;BME280;45247;47.466;19.004;2023-04-30T10:35:23;99846.44;;;19.58;51.28
59443;BME280;45247;47.466;19.004;2023-04-30T10:37:58;99847.31;;;20.12;49.12
59443;BME280;45247;47.466;19.004;2023-04-30T10:40:26;99838.47;;;20.37;46.62
59443;BME280;45247;47.466;19.004;2023-04-30T10:42:57;99839.44;;;20.72;46.26
59443;BME280;45247;47.466;19.004;2023-04-30T10:45:34;99829.66;;;20.63;48.19
59443;BME280;45247;47.466;19.004;2023-04-30T10:48:04;99840.56;;;20.43;49.92
59443;BME280;45247;47.466;19.004;2023-04-30T10:50:39;99846.78;;;19.90;50.89
59443;BME280;45247;47.466;19.004;2023-04-30T10:53:12;99843.75;;;19.58;49.74
59443;BME280;45247;47.466;19.004;2023-04-30T10:55:45;99836.78;;;19.19;50.75
59443;BME280;45247;47.466;19.004;2023-04-30T10:58:24;99829.75;;;18.81;53.27
59443;BME280;45247;47.466;19.004;2023-04-30T11:01:01;99840.84;;;18.67;53.11
59443;BME280;45247;47.466;19.004;2023-04-30T11:03:32;99833.13;;;18.54;54.78
59443;BME280;45247;47.466;19.004;2023-04-30T11:06:07;99834.38;;;19.16;55.15
59443;BME280;45247;47.466;19.004;2023-04-30T11:08:37;99830.59;;;19.19;53.99
59443;BME280;45247;47.466;19.004;2023-04-30T11:11:07;99831.31;;;19.11;52.51
59443;BME280;45247;47.466;19.004;2023-04-30T11:13:43;99834.44;;;19.07;52.46
59443;BME280;45247;47.466;19.004;2023-04-30T11:16:12;99835.31;;;18.97;53.71
59443;BME280;45247;47.466;19.004;2023-04-30T11:18:43;99835.59;;;18.94;53.21
59443;BME280;45247;47.466;19.004;2023-04-30T11:21:11;99833.50;;;18.88;53.42
59443;BME280;45247;47.466;19.004;2023-04-30T11:23:40;99829.97;;;18.97;52.30
59443;BME280;45247;47.466;19.004;2023-04-30T11:26:10;99833.59;;;19.06;51.34
59443;BME280;45247;47.466;19.004;2023-04-30T11:28:49;99833.94;;;18.93;52.91
59443;BME280;45247;47.466;19.004;2023-04-30T11:31:19;99838.38;;;19.02;51.93
59443;BME280;45247;47.466;19.004;2023-04-30T11:33:48;99833.72;;;19.14;52.80
59443;BME280;45247;47.466;19.004;2023-04-30T11:36:16;99824.88;;;19.04;51.37
59443;BME280;45247;47.466;19.004;2023-04-30T11:38:46;99838.28;;;19.22;51.42
59443;BME280;45247;47.466;19.004;2023-04-30T11:41:14;99836.13;;;19.08;52.13
59443;BME280;45247;47.466;19.004;2023-04-30T11:43:44;99833.38;;;19.17;52.35
59443;BME280;45247;47.466;19.004;2023-04-30T11:46:14;99829.56;;;19.75;50.46
59443;BME280;45247;47.466;19.004;2023-04-30T11:48:44;99831.53;;;19.73;50.79
59443;BME280;45247;47.466;19.004;2023-04-30T11:51:16;99840.31;;;19.65;50.59
59443;BME280;45247;47.466;19.004;2023-04-30T11:53:45;99833.25;;;19.19;51.79
59443;BME280;45247;47.466;19.004;2023-04-30T11:56:17;99830.25;;;18.94;53.39
59443;BME280;45247;47.466;19.004;2023-04-30T11:58:48;99838.75;;;18.70;53.37
59443;BME280;45247;47.466;19.004;2023-04-30T12:01:17;99839.50;;;18.43;53.69
59443;BME280;45247;47.466;19.004;2023-04-30T12:03:49;99835.44;;;18.30;54.46
59443;BME280;45247;47.466;19.004;2023-04-30T12:06:23;99837.16;;;18.21;54.98
59443;BME280;45247;47.466;19.004;2023-04-30T12:08:52;99834.59;;;18.10;54.33
59443;BME280;45247;47.466;19.004;2023-04-30T12:11:21;99830.66;;;18.23;55.11
59443;BME280;45247;47.466;19.004;2023-04-30T12:13:54;99828.34;;;18.58;55.64
59443;BME280;45247;47.466;19.004;2023-04-30T12:16:23;99829.97;;;18.97;54.11
59443;BME280;45247;47.466;19.004;2023-04-30T12:18:51;99821.88;;;19.35;54.16
59443;BME280;45247;47.466;19.004;2023-04-30T12:21:20;99822.34;;;19.30;53.26
59443;BME280;45247;47.466;19.004;2023-04-30T12:23:49;99821.59;;;19.38;53.44
59443;BME280;45247;47.466;19.004;2023-04-30T12:26:17;99822.72;;;19.35;53.16
59443;BME280;45247;47.466;19.004;2023-04-30T12:28:46;99816.41;;;19.82;53.30
59443;BME280;45247;47.466;19.004;2023-04-30T12:31:17;99817.88;;;19.76;52.17
59443;BME280;45247;47.466;19.004;2023-04-30T12:33:53;99811.75;;;19.38;50.31
59443;BME280;45247;47.466;19.004;2023-04-30T12:36:28;99810.22;;;19.08;50.59
59443;BME280;45247;47.466;19.004;2023-04-30T12:39:05;99805.81;;;18.89;51.01
59443;BME280;45247;47.466;19.004;2023-04-30T12:41:39;99814.28;;;18.75;51.50
59443;BME280;45247;47.466;19.004;2023-04-30T12:44:18;99806.53;;;18.82;52.09
59443;BME280;45247;47.466;19.004;2023-04-30T12:46:49;99811.44;;;18.67;52.71
59443;BME280;45247;47.466;19.004;2023-04-30T12:49:23;99807.25;;;18.64;51.13
59443;BME280;45247;47.466;19.004;2023-04-30T12:51:56;99793.72;;;18.85;51.07
59443;BME280;45247;47.466;19.004;2023-04-30T12:54:26;99795.72;;;19.01;50.86
59443;BME280;45247;47.466;19.004;2023-04-30T12:56:58;99797.28;;;19.04;51.31
59443;BME280;45247;47.466;19.004;2023-04-30T12:59:28;99785.28;;;18.80;51.76
59443;BME280;45247;47.466;19.004;2023-04-30T13:02:06;99786.44;;;18.68;52.66